sensor_id;sensor_type;location;lat;lon;timestamp;temperature;humidity
38902;DHT22;24661;53.566;9.910;2022-09-16T00:01:50;10.70;99.90
38902;DHT22;24661;53.566;9.910;2022-09-16T00:04:16;10.70;99.90
38902;DHT22;24661;53.566;9.910;2022-09-16T00:06:42;10.70;99.90
38902;DHT22;24661;53.566;9.910;2022-09-16T00:09:08;10.70;99.90
38902;DHT22;24661;53.566;9.910;2022-09-16T00:11:34;10.70;99.90
38902;DHT22;24661;53.566;9.910;2022-09-16T00:14:00;10.50;99.90
38902;DHT22;24661;53.566;9.910;2022-09-16T00:16:27;10.70;99.90
38902;DHT22;24661;53.566;9.910;2022-09-16T00:18:54;10.70;99.90
38902;DHT22;24661;53.566;9.910;2022-09-16T00:21:20;10.60;99.90
38902;DHT22;24661;53.566;9.910;2022-09-16T00:23:46;10.60;99.90
38902;DHT22;24661;53.566;9.910;2022-09-16T00:26:12;10.60;99.90
38902;DHT22;24661;53.566;9.910;2022-09-16T00:28:38;10.60;99.90
38902;DHT22;24661;53.566;9.910;2022-09-16T00:31:03;10.60;99.90
38902;DHT22;24661;53.566;9.910;2022-09-16T00:33:30;10.70;99.90
38902;DHT22;24661;53.566;9.910;2022-09-16T00:36:13;10.70;99.90
38902;DHT22;24661;53.566;9.910;2022-09-16T00:38:40;10.70;99.90
38902;DHT22;24661;53.566;9.910;2022-09-16T00:41:06;10.70;99.90
38902;DHT22;24661;53.566;9.910;2022-09-16T00:43:53;10.80;99.90
38902;DHT22;24661;53.566;9.910;2022-09-16T00:46:26;10.80;99.90
38902;DHT22;24661;53.566;9.910;2022-09-16T00:48:54;10.80;99.90
38902;DHT22;24661;53.566;9.910;2022-09-16T00:51:20;10.80;99.90
38902;DHT22;24661;53.566;9.910;2022-09-16T00:53:50;10.80;99.90
38902;DHT22;24661;53.566;9.910;2022-09-16T00:56:18;10.70;99.90
38902;DHT22;24661;53.566;9.910;2022-09-16T01:01:41;10.60;99.90
38902;DHT22;24661;53.566;9.910;2022-09-16T01:04:30;10.60;99.90
38902;DHT22;24661;53.566;9.910;2022-09-16T01:06:57;10.60;99.90
38902;DHT22;24661;53.566;9.910;2022-09-16T01:09:23;10.70;99.90
38902;DHT22;24661;53.566;9.910;2022-09-16T01:11:50;10.70;99.90
38902;DHT22;24661;53.566;9.910;2022-09-16T01:14:16;10.70;99.90
38902;DHT22;24661;53.566;9.910;2022-09-16T01:17:32;10.70;99.90
38902;DHT22;24661;53.566;9.910;2022-09-16T01:26:12;12.10;99.90
38902;DHT22;24661;53.566;9.910;2022-09-16T01:29:19;10.60;99.90
38902;DHT22;24661;53.566;9.910;2022-09-16T01:37:36;10.50;99.90
38902;DHT22;24661;53.566;9.910;2022-09-16T01:40:17;10.50;99.90
38902;DHT22;24661;53.566;9.910;2022-09-16T01:43:12;10.40;99.90
38902;DHT22;24661;53.566;9.910;2022-09-16T01:48:58;10.50;99.90
38902;DHT22;24661;53.566;9.910;2022-09-16T01:52:05;10.50;99.90
38902;DHT22;24661;53.566;9.910;2022-09-16T01:54:51;10.50;99.90
38902;DHT22;24661;53.566;9.910;2022-09-16T01:57:37;10.50;99.90
38902;DHT22;24661;53.566;9.910;2022-09-16T02:00:09;10.40;99.90
38902;DHT22;24661;53.566;9.910;2022-09-16T02:05:15;10.40;99.90
38902;DHT22;24661;53.566;9.910;2022-09-16T02:07:46;10.40;99.90
38902;DHT22;24661;53.566;9.910;2022-09-16T02:10:21;10.40;99.90
38902;DHT22;24661;53.566;9.910;2022-09-16T02:12:50;10.40;99.90
38902;DHT22;24661;53.566;9.910;2022-09-16T02:15:20;10.40;99.90
38902;DHT22;24661;53.566;9.910;2022-09-16T02:17:52;10.40;99.90
38902;DHT22;24661;53.566;9.910;2022-09-16T02:20:22;10.40;99.90
38902;DHT22;24661;53.566;9.910;2022-09-16T02:23:02;10.40;99.90
38902;DHT22;24661;53.566;9.910;2022-09-16T02:25:32;10.40;99.90
38902;DHT22;24661;53.566;9.910;2022-09-16T02:27:59;10.40;99.90
38902;DHT22;24661;53.566;9.910;2022-09-16T02:30:26;10.40;99.90
38902;DHT22;24661;53.566;9.910;2022-09-16T02:32:59;10.40;99.90
38902;DHT22;24661;53.566;9.910;2022-09-16T02:35:28;10.40;99.90
38902;DHT22;24661;53.566;9.910;2022-09-16T02:38:02;10.40;99.90
38902;DHT22;24661;53.566;9.910;2022-09-16T02:40:51;10.40;99.90
38902;DHT22;24661;53.566;9.910;2022-09-16T02:43:18;10.40;99.90
38902;DHT22;24661;53.566;9.910;2022-09-16T02:51:44;10.50;99.90
38902;DHT22;24661;53.566;9.910;2022-09-16T02:56:55;10.50;99.90
38902;DHT22;24661;53.566;9.910;2022-09-16T02:59:22;10.50;99.90
38902;DHT22;24661;53.566;9.910;2022-09-16T03:01:48;9.30;99.90
38902;DHT22;24661;53.566;9.910;2022-09-16T03:04:16;10.50;99.90
38902;DHT22;24661;53.566;9.910;2022-09-16T03:06:43;10.40;99.90
38902;DHT22;24661;53.566;9.910;2022-09-16T03:09:10;10.40;99.90
38902;DHT22;24661;53.566;9.910;2022-09-16T03:20:12;10.40;99.90
38902;DHT22;24661;53.566;9.910;2022-09-16T03:22:56;10.40;99.90
38902;DHT22;24661;53.566;9.910;2022-09-16T03:29:01;10.40;99.90
38902;DHT22;24661;53.566;9.910;2022-09-16T03:31:43;10.40;99.90
38902;DHT22;24661;53.566;9.910;2022-09-16T03:36:55;10.30;99.90
38902;DHT22;24661;53.566;9.910;2022-09-16T03:39:22;10.30;99.90
38902;DHT22;24661;53.566;9.910;2022-09-16T03:41:48;10.30;99.90
38902;DHT22;24661;53.566;9.910;2022-09-16T03:44:14;10.30;99.90
38902;DHT22;24661;53.566;9.910;2022-09-16T03:46:39;10.30;99.90
38902;DHT22;24661;53.566;9.910;2022-09-16T03:49:05;10.30;99.90
38902;DHT22;24661;53.566;9.910;2022-09-16T03:51:30;10.30;99.90
38902;DHT22;24661;53.566;9.910;2022-09-16T03:53:56;10.30;99.90
38902;DHT22;24661;53.566;9.910;2022-09-16T03:56:23;10.30;99.90
38902;DHT22;24661;53.566;9.910;2022-09-16T03:58:48;10.30;99.90
38902;DHT22;24661;53.566;9.910;2022-09-16T04:01:14;10.40;99.90
38902;DHT22;24661;53.566;9.910;2022-09-16T04:03:40;10.40;99.90
38902;DHT22;24661;53.566;9.910;2022-09-16T04:06:06;10.40;99.90
38902;DHT22;24661;53.566;9.910;2022-09-16T04:08:31;10.40;99.90
38902;DHT22;24661;53.566;9.910;2022-09-16T04:10:59;10.40;99.90
38902;DHT22;24661;53.566;9.910;2022-09-16T04:13:28;10.40;99.90
38902;DHT22;24661;53.566;9.910;2022-09-16T04:15:53;10.50;99.90
38902;DHT22;24661;53.566;9.910;2022-09-16T04:18:19;10.40;99.90
38902;DHT22;24661;53.566;9.910;2022-09-16T04:20:45;10.40;99.90
38902;DHT22;24661;53.566;9.910;2022-09-16T04:23:11;10.40;99.90
38902;DHT22;24661;53.566;9.910;2022-09-16T04:25:36;10.40;99.90
38902;DHT22;24661;53.566;9.910;2022-09-16T04:28:03;10.40;99.90
38902;DHT22;24661;53.566;9.910;2022-09-16T04:30:29;10.30;99.90
38902;DHT22;24661;53.566;9.910;2022-09-16T04:32:55;10.30;99.90
38902;DHT22;24661;53.566;9.910;2022-09-16T04:35:22;10.20;99.90
38902;DHT22;24661;53.566;9.910;2022-09-16T04:37:49;10.20;99.90
38902;DHT22;24661;53.566;9.910;2022-09-16T04:40:16;10.20;99.90
38902;DHT22;24661;53.566;9.910;2022-09-16T04:42:48;10.10;99.90
38902;DHT22;24661;53.566;9.910;2022-09-16T04:45:13;10.10;99.90
38902;DHT22;24661;53.566;9.910;2022-09-16T04:47:39;10.10;99.90
38902;DHT22;24661;53.566;9.910;2022-09-16T04:50:05;10.10;99.90
38902;DHT22;24661;53.566;9.910;2022-09-16T04:52:31;10.00;99.90
38902;DHT22;24661;53.566;9.910;2022-09-16T04:54:56;10.00;99.90
38902;DHT22;24661;53.566;9.910;2022-09-16T04:57:22;10.00;99.90
38902;DHT22;24661;53.566;9.910;2022-09-16T04:59:48;10.00;99.90
38902;DHT22;24661;53.566;9.910;2022-09-16T05:02:14;10.00;99.90
38902;DHT22;24661;53.566;9.910;2022-09-16T05:04:39;10.00;99.90
38902;DHT22;24661;53.566;9.910;2022-09-16T05:07:05;10.00;99.90
38902;DHT22;24661;53.566;9.910;2022-09-16T05:09:31;10.00;99.90
38902;DHT22;24661;53.566;9.910;2022-09-16T05:11:56;10.10;99.90
38902;DHT22;24661;53.566;9.910;2022-09-16T05:14:22;10.10;99.90
38902;DHT22;24661;53.566;9.910;2022-09-16T05:16:47;10.10;99.90
38902;DHT22;24661;53.566;9.910;2022-09-16T05:19:13;10.10;99.90
38902;DHT22;24661;53.566;9.910;2022-09-16T05:21:40;10.10;99.90
38902;DHT22;24661;53.566;9.910;2022-09-16T05:24:08;10.10;99.90
38902;DHT22;24661;53.566;9.910;2022-09-16T05:26:35;10.10;99.90
38902;DHT22;24661;53.566;9.910;2022-09-16T05:29:04;10.10;99.90
38902;DHT22;24661;53.566;9.910;2022-09-16T05:31:32;10.20;99.90
38902;DHT22;24661;53.566;9.910;2022-09-16T05:34:09;10.20;99.90
38902;DHT22;24661;53.566;9.910;2022-09-16T05:36:35;10.20;99.90
38902;DHT22;24661;53.566;9.910;2022-09-16T05:39:03;10.20;99.90
38902;DHT22;24661;53.566;9.910;2022-09-16T05:41:28;10.40;99.90
38902;DHT22;24661;53.566;9.910;2022-09-16T05:43:57;10.20;99.90
38902;DHT22;24661;53.566;9.910;2022-09-16T05:46:25;10.30;99.90
38902;DHT22;24661;53.566;9.910;2022-09-16T05:48:51;10.20;99.90
38902;DHT22;24661;53.566;9.910;2022-09-16T05:51:20;10.20;99.90
38902;DHT22;24661;53.566;9.910;2022-09-16T05:53:47;10.20;99.90
38902;DHT22;24661;53.566;9.910;2022-09-16T05:56:18;10.10;99.90
38902;DHT22;24661;53.566;9.910;2022-09-16T05:58:45;10.10;99.90
38902;DHT22;24661;53.566;9.910;2022-09-16T06:01:13;10.20;99.90
38902;DHT22;24661;53.566;9.910;2022-09-16T06:03:41;10.20;99.90
38902;DHT22;24661;53.566;9.910;2022-09-16T06:06:28;8.00;99.90
38902;DHT22;24661;53.566;9.910;2022-09-16T06:08:56;10.30;99.90
38902;DHT22;24661;53.566;9.910;2022-09-16T06:11:23;10.30;99.90
38902;DHT22;24661;53.566;9.910;2022-09-16T06:13:57;10.20;99.90
38902;DHT22;24661;53.566;9.910;2022-09-16T06:16:24;10.30;99.90
38902;DHT22;24661;53.566;9.910;2022-09-16T06:18:51;10.30;99.90
38902;DHT22;24661;53.566;9.910;2022-09-16T06:21:16;10.40;99.90
38902;DHT22;24661;53.566;9.910;2022-09-16T06:23:43;10.40;99.90
38902;DHT22;24661;53.566;9.910;2022-09-16T06:26:20;10.50;99.90
38902;DHT22;24661;53.566;9.910;2022-09-16T06:28:46;10.50;99.90
38902;DHT22;24661;53.566;9.910;2022-09-16T06:31:14;10.50;99.90
38902;DHT22;24661;53.566;9.910;2022-09-16T06:33:41;10.50;99.90
38902;DHT22;24661;53.566;9.910;2022-09-16T06:36:12;10.60;99.90
38902;DHT22;24661;53.566;9.910;2022-09-16T06:38:38;10.60;99.90
38902;DHT22;24661;53.566;9.910;2022-09-16T06:41:07;10.70;99.90
38902;DHT22;24661;53.566;9.910;2022-09-16T06:43:34;10.70;99.90
38902;DHT22;24661;53.566;9.910;2022-09-16T06:46:02;10.70;99.90
38902;DHT22;24661;53.566;9.910;2022-09-16T06:48:27;10.80;99.90
38902;DHT22;24661;53.566;9.910;2022-09-16T06:51:01;10.80;99.90
38902;DHT22;24661;53.566;9.910;2022-09-16T06:53:27;10.90;99.90
38902;DHT22;24661;53.566;9.910;2022-09-16T06:56:03;10.90;99.90
38902;DHT22;24661;53.566;9.910;2022-09-16T06:58:34;12.20;99.90
38902;DHT22;24661;53.566;9.910;2022-09-16T07:01:08;11.00;99.90
38902;DHT22;24661;53.566;9.910;2022-09-16T07:03:43;11.10;99.90
38902;DHT22;24661;53.566;9.910;2022-09-16T07:06:09;11.10;99.90
38902;DHT22;24661;53.566;9.910;2022-09-16T07:08:36;11.20;99.90
38902;DHT22;24661;53.566;9.910;2022-09-16T07:11:09;11.20;99.90
38902;DHT22;24661;53.566;9.910;2022-09-16T07:13:34;11.20;99.90
38902;DHT22;24661;53.566;9.910;2022-09-16T07:16:02;11.30;99.90
38902;DHT22;24661;53.566;9.910;2022-09-16T07:18:29;11.30;99.90
38902;DHT22;24661;53.566;9.910;2022-09-16T07:21:11;11.40;99.90
38902;DHT22;24661;53.566;9.910;2022-09-16T07:23:37;11.40;99.90
38902;DHT22;24661;53.566;9.910;2022-09-16T07:26:14;11.50;99.90
38902;DHT22;24661;53.566;9.910;2022-09-16T07:28:41;11.50;99.90
38902;DHT22;24661;53.566;9.910;2022-09-16T07:31:11;11.60;99.90
38902;DHT22;24661;53.566;9.910;2022-09-16T07:33:43;11.70;99.90
38902;DHT22;24661;53.566;9.910;2022-09-16T07:36:11;11.80;99.90
38902;DHT22;24661;53.566;9.910;2022-09-16T07:38:37;11.80;99.90
38902;DHT22;24661;53.566;9.910;2022-09-16T07:41:18;11.90;99.90
38902;DHT22;24661;53.566;9.910;2022-09-16T07:43:44;12.00;99.90
38902;DHT22;24661;53.566;9.910;2022-09-16T07:46:11;12.00;99.90
38902;DHT22;24661;53.566;9.910;2022-09-16T07:48:37;12.10;99.90
38902;DHT22;24661;53.566;9.910;2022-09-16T07:51:09;12.10;99.90
38902;DHT22;24661;53.566;9.910;2022-09-16T07:53:35;12.20;99.90
38902;DHT22;24661;53.566;9.910;2022-09-16T07:56:02;12.30;99.90
38902;DHT22;24661;53.566;9.910;2022-09-16T07:58:28;12.50;99.90
38902;DHT22;24661;53.566;9.910;2022-09-16T08:00:54;12.70;99.90
38902;DHT22;24661;53.566;9.910;2022-09-16T08:03:20;13.00;99.90
38902;DHT22;24661;53.566;9.910;2022-09-16T08:05:45;13.20;99.90
38902;DHT22;24661;53.566;9.910;2022-09-16T08:08:11;13.20;99.90
38902;DHT22;24661;53.566;9.910;2022-09-16T08:10:36;13.30;99.90
38902;DHT22;24661;53.566;9.910;2022-09-16T08:13:06;13.00;99.90
38902;DHT22;24661;53.566;9.910;2022-09-16T08:15:32;12.80;99.90
38902;DHT22;24661;53.566;9.910;2022-09-16T08:17:57;12.90;99.90
38902;DHT22;24661;53.566;9.910;2022-09-16T08:20:24;12.90;99.90
38902;DHT22;24661;53.566;9.910;2022-09-16T08:22:50;15.20;99.90
38902;DHT22;24661;53.566;9.910;2022-09-16T08:25:16;12.90;99.90
38902;DHT22;24661;53.566;9.910;2022-09-16T08:27:42;12.90;99.90
38902;DHT22;24661;53.566;9.910;2022-09-16T08:30:09;13.00;99.90
38902;DHT22;24661;53.566;9.910;2022-09-16T08:32:35;13.00;99.90
38902;DHT22;24661;53.566;9.910;2022-09-16T08:35:00;13.00;99.90
38902;DHT22;24661;53.566;9.910;2022-09-16T08:37:26;13.10;99.90
38902;DHT22;24661;53.566;9.910;2022-09-16T08:39:52;13.20;99.90
38902;DHT22;24661;53.566;9.910;2022-09-16T08:45:10;13.50;99.90
38902;DHT22;24661;53.566;9.910;2022-09-16T08:47:59;13.50;99.90
38902;DHT22;24661;53.566;9.910;2022-09-16T08:50:31;13.60;99.90
38902;DHT22;24661;53.566;9.910;2022-09-16T08:53:01;13.80;99.90
38902;DHT22;24661;53.566;9.910;2022-09-16T08:55:31;13.90;99.90
38902;DHT22;24661;53.566;9.910;2022-09-16T08:58:08;14.00;99.90
38902;DHT22;24661;53.566;9.910;2022-09-16T09:00:36;14.10;99.90
38902;DHT22;24661;53.566;9.910;2022-09-16T09:03:27;14.20;99.90
38902;DHT22;24661;53.566;9.910;2022-09-16T09:05:57;14.10;99.90
38902;DHT22;24661;53.566;9.910;2022-09-16T09:14:09;14.20;99.90
38902;DHT22;24661;53.566;9.910;2022-09-16T09:19:52;14.20;99.90
38902;DHT22;24661;53.566;9.910;2022-09-16T09:22:37;14.10;99.90
38902;DHT22;24661;53.566;9.910;2022-09-16T09:36:18;13.40;99.90
38902;DHT22;24661;53.566;9.910;2022-09-16T09:41:51;12.80;99.90
38902;DHT22;24661;53.566;9.910;2022-09-16T09:44:53;12.80;99.90
38902;DHT22;24661;53.566;9.910;2022-09-16T09:47:24;12.90;99.90
38902;DHT22;24661;53.566;9.910;2022-09-16T09:50:08;13.10;99.90
38902;DHT22;24661;53.566;9.910;2022-09-16T09:55:19;13.40;99.90
38902;DHT22;24661;53.566;9.910;2022-09-16T09:58:04;13.50;99.90
38902;DHT22;24661;53.566;9.910;2022-09-16T10:00:30;13.60;99.90
38902;DHT22;24661;53.566;9.910;2022-09-16T10:03:11;13.70;99.90
38902;DHT22;24661;53.566;9.910;2022-09-16T10:05:38;13.80;99.90
38902;DHT22;24661;53.566;9.910;2022-09-16T10:13:21;14.20;99.90
38902;DHT22;24661;53.566;9.910;2022-09-16T10:15:47;14.20;99.90
38902;DHT22;24661;53.566;9.910;2022-09-16T10:18:22;14.20;99.90
38902;DHT22;24661;53.566;9.910;2022-09-16T10:20:57;14.20;99.90
38902;DHT22;24661;53.566;9.910;2022-09-16T10:23:24;14.30;99.90
38902;DHT22;24661;53.566;9.910;2022-09-16T10:26:03;14.40;99.90
38902;DHT22;24661;53.566;9.910;2022-09-16T10:28:29;14.60;99.90
38902;DHT22;24661;53.566;9.910;2022-09-16T10:30:56;14.60;99.90
38902;DHT22;24661;53.566;9.910;2022-09-16T10:33:41;14.50;99.90
38902;DHT22;24661;53.566;9.910;2022-09-16T10:36:10;14.70;99.90
38902;DHT22;24661;53.566;9.910;2022-09-16T10:38:45;14.80;99.90
38902;DHT22;24661;53.566;9.910;2022-09-16T10:41:19;15.00;99.90
38902;DHT22;24661;53.566;9.910;2022-09-16T10:43:51;15.10;99.90
38902;DHT22;24661;53.566;9.910;2022-09-16T10:46:18;15.10;99.90
38902;DHT22;24661;53.566;9.910;2022-09-16T10:48:44;15.20;99.90
38902;DHT22;24661;53.566;9.910;2022-09-16T10:51:39;15.30;99.90
38902;DHT22;24661;53.566;9.910;2022-09-16T10:54:05;15.50;99.90
38902;DHT22;24661;53.566;9.910;2022-09-16T10:56:33;15.60;99.90
38902;DHT22;24661;53.566;9.910;2022-09-16T10:59:10;15.60;99.90
38902;DHT22;24661;53.566;9.910;2022-09-16T11:07:13;15.90;99.90
38902;DHT22;24661;53.566;9.910;2022-09-16T11:12:46;15.90;99.90
38902;DHT22;24661;53.566;9.910;2022-09-16T11:18:29;14.90;99.90
38902;DHT22;24661;53.566;9.910;2022-09-16T11:29:15;13.50;99.90
38902;DHT22;24661;53.566;9.910;2022-09-16T11:48:19;14.20;99.90
38902;DHT22;24661;53.566;9.910;2022-09-16T11:51:08;14.40;99.90
38902;DHT22;24661;53.566;9.910;2022-09-16T11:53:51;14.60;99.90
38902;DHT22;24661;53.566;9.910;2022-09-16T11:56:28;14.70;99.90
38902;DHT22;24661;53.566;9.910;2022-09-16T11:59:08;15.00;99.90
38902;DHT22;24661;53.566;9.910;2022-09-16T12:01:47;15.20;99.90
38902;DHT22;24661;53.566;9.910;2022-09-16T12:04:31;15.40;99.90
38902;DHT22;24661;53.566;9.910;2022-09-16T12:07:39;15.40;99.90
38902;DHT22;24661;53.566;9.910;2022-09-16T12:10:26;15.50;99.90
38902;DHT22;24661;53.566;9.910;2022-09-16T12:13:04;15.60;99.90
38902;DHT22;24661;53.566;9.910;2022-09-16T12:15:41;15.70;99.90
38902;DHT22;24661;53.566;9.910;2022-09-16T12:18:18;14.60;99.90
38902;DHT22;24661;53.566;9.910;2022-09-16T12:21:08;15.60;99.90
38902;DHT22;24661;53.566;9.910;2022-09-16T12:23:42;15.30;99.90
38902;DHT22;24661;53.566;9.910;2022-09-16T12:26:33;14.70;99.90
38902;DHT22;24661;53.566;9.910;2022-09-16T12:29:45;14.20;99.90
38902;DHT22;24661;53.566;9.910;2022-09-16T12:32:21;14.10;99.90
38902;DHT22;24661;53.566;9.910;2022-09-16T12:34:54;14.00;99.90
38902;DHT22;24661;53.566;9.910;2022-09-16T12:39:57;14.20;99.90
38902;DHT22;24661;53.566;9.910;2022-09-16T12:42:39;14.20;99.90
38902;DHT22;24661;53.566;9.910;2022-09-16T12:48:26;14.40;99.90
38902;DHT22;24661;53.566;9.910;2022-09-16T12:59:50;14.10;99.90
38902;DHT22;24661;53.566;9.910;2022-09-16T13:02:31;13.80;99.90
38902;DHT22;24661;53.566;9.910;2022-09-16T13:05:10;13.70;99.90
38902;DHT22;24661;53.566;9.910;2022-09-16T13:07:36;13.70;99.90
38902;DHT22;24661;53.566;9.910;2022-09-16T13:10:14;13.70;99.90
38902;DHT22;24661;53.566;9.910;2022-09-16T13:12:40;13.80;99.90
38902;DHT22;24661;53.566;9.910;2022-09-16T13:15:07;13.80;99.90
38902;DHT22;24661;53.566;9.910;2022-09-16T13:17:37;13.70;99.90
38902;DHT22;24661;53.566;9.910;2022-09-16T13:20:13;13.50;99.90
38902;DHT22;24661;53.566;9.910;2022-09-16T13:22:45;13.30;99.90
38902;DHT22;24661;53.566;9.910;2022-09-16T13:28:19;13.00;99.90
38902;DHT22;24661;53.566;9.910;2022-09-16T13:30:45;12.90;99.90
38902;DHT22;24661;53.566;9.910;2022-09-16T13:35:43;12.90;99.90
38902;DHT22;24661;53.566;9.910;2022-09-16T13:38:23;12.90;99.90
38902;DHT22;24661;53.566;9.910;2022-09-16T13:40:57;12.80;99.90
38902;DHT22;24661;53.566;9.910;2022-09-16T13:46:12;12.60;99.90
38902;DHT22;24661;53.566;9.910;2022-09-16T13:48:55;12.50;99.90
38902;DHT22;24661;53.566;9.910;2022-09-16T13:51:21;12.40;99.90
38902;DHT22;24661;53.566;9.910;2022-09-16T13:53:49;12.30;99.90
38902;DHT22;24661;53.566;9.910;2022-09-16T13:56:25;12.10;99.90
38902;DHT22;24661;53.566;9.910;2022-09-16T14:01:38;11.90;99.90
38902;DHT22;24661;53.566;9.910;2022-09-16T14:04:40;11.80;99.90
38902;DHT22;24661;53.566;9.910;2022-09-16T14:10:02;11.60;99.90
38902;DHT22;24661;53.566;9.910;2022-09-16T14:15:07;11.40;99.90
38902;DHT22;24661;53.566;9.910;2022-09-16T14:17:38;11.30;99.90
38902;DHT22;24661;53.566;9.910;2022-09-16T14:20:15;11.60;99.90
38902;DHT22;24661;53.566;9.910;2022-09-16T14:23:13;11.20;99.90
38902;DHT22;24661;53.566;9.910;2022-09-16T14:25:40;11.00;99.90
38902;DHT22;24661;53.566;9.910;2022-09-16T14:30:50;10.90;99.90
38902;DHT22;24661;53.566;9.910;2022-09-16T14:33:21;10.80;99.90
38902;DHT22;24661;53.566;9.910;2022-09-16T14:35:52;10.80;99.90
38902;DHT22;24661;53.566;9.910;2022-09-16T14:38:21;10.90;99.90
38902;DHT22;24661;53.566;9.910;2022-09-16T14:40:52;10.90;99.90
38902;DHT22;24661;53.566;9.910;2022-09-16T14:43:22;10.90;99.90
38902;DHT22;24661;53.566;9.910;2022-09-16T14:45:54;10.90;99.90
38902;DHT22;24661;53.566;9.910;2022-09-16T14:48:32;10.90;99.90
38902;DHT22;24661;53.566;9.910;2022-09-16T14:51:00;10.90;99.90
38902;DHT22;24661;53.566;9.910;2022-09-16T14:53:30;10.90;99.90
38902;DHT22;24661;53.566;9.910;2022-09-16T14:56:01;10.90;99.90
38902;DHT22;24661;53.566;9.910;2022-09-16T14:58:30;10.90;99.90
38902;DHT22;24661;53.566;9.910;2022-09-16T15:01:08;10.90;99.90
38902;DHT22;24661;53.566;9.910;2022-09-16T15:03:48;11.00;99.90
38902;DHT22;24661;53.566;9.910;2022-09-16T15:06:19;11.00;99.90
38902;DHT22;24661;53.566;9.910;2022-09-16T15:09:12;11.00;99.90
38902;DHT22;24661;53.566;9.910;2022-09-16T15:11:35;11.00;99.90
38902;DHT22;24661;53.566;9.910;2022-09-16T15:14:17;11.00;99.90
38902;DHT22;24661;53.566;9.910;2022-09-16T15:16:47;11.00;99.90
38902;DHT22;24661;53.566;9.910;2022-09-16T15:19:40;11.10;99.90
38902;DHT22;24661;53.566;9.910;2022-09-16T15:22:13;11.10;99.90
38902;DHT22;24661;53.566;9.910;2022-09-16T15:24:43;11.20;99.90
38902;DHT22;24661;53.566;9.910;2022-09-16T15:27:20;11.20;99.90
38902;DHT22;24661;53.566;9.910;2022-09-16T15:29:54;11.20;99.90
38902;DHT22;24661;53.566;9.910;2022-09-16T15:32:26;11.20;99.90
38902;DHT22;24661;53.566;9.910;2022-09-16T15:35:11;11.30;99.90
38902;DHT22;24661;53.566;9.910;2022-09-16T15:37:41;11.20;99.90
38902;DHT22;24661;53.566;9.910;2022-09-16T15:40:31;11.50;99.90
38902;DHT22;24661;53.566;9.910;2022-09-16T15:43:19;9.40;99.90
38902;DHT22;24661;53.566;9.910;2022-09-16T15:45:57;11.60;99.90
38902;DHT22;24661;53.566;9.910;2022-09-16T15:48:27;11.60;99.90
38902;DHT22;24661;53.566;9.910;2022-09-16T15:50:58;11.60;99.90
38902;DHT22;24661;53.566;9.910;2022-09-16T15:58:38;11.80;99.90
38902;DHT22;24661;53.566;9.910;2022-09-16T16:01:51;11.80;99.90
38902;DHT22;24661;53.566;9.910;2022-09-16T16:03:57;11.90;99.90
38902;DHT22;24661;53.566;9.910;2022-09-16T16:11:54;11.90;99.90
38902;DHT22;24661;53.566;9.910;2022-09-16T16:14:21;11.90;99.90
38902;DHT22;24661;53.566;9.910;2022-09-16T16:16:50;11.80;99.90
38902;DHT22;24661;53.566;9.910;2022-09-16T16:19:16;11.80;99.90
38902;DHT22;24661;53.566;9.910;2022-09-16T16:21:42;11.80;99.90
38902;DHT22;24661;53.566;9.910;2022-09-16T16:24:11;11.80;99.90
38902;DHT22;24661;53.566;9.910;2022-09-16T16:26:36;11.80;99.90
38902;DHT22;24661;53.566;9.910;2022-09-16T16:29:02;11.90;99.90
38902;DHT22;24661;53.566;9.910;2022-09-16T16:31:28;11.90;99.90
38902;DHT22;24661;53.566;9.910;2022-09-16T16:33:53;11.90;99.90
38902;DHT22;24661;53.566;9.910;2022-09-16T16:36:20;12.00;99.90
38902;DHT22;24661;53.566;9.910;2022-09-16T16:38:49;12.00;99.90
38902;DHT22;24661;53.566;9.910;2022-09-16T16:41:22;12.00;99.90
38902;DHT22;24661;53.566;9.910;2022-09-16T16:43:48;12.10;99.90
38902;DHT22;24661;53.566;9.910;2022-09-16T16:46:14;12.10;99.90
38902;DHT22;24661;53.566;9.910;2022-09-16T16:48:42;12.10;99.90
38902;DHT22;24661;53.566;9.910;2022-09-16T16:51:12;12.20;99.90
38902;DHT22;24661;53.566;9.910;2022-09-16T16:53:38;12.20;99.90
38902;DHT22;24661;53.566;9.910;2022-09-16T16:56:06;12.30;99.90
38902;DHT22;24661;53.566;9.910;2022-09-16T16:58:34;12.30;99.90
38902;DHT22;24661;53.566;9.910;2022-09-16T17:01:17;12.30;99.90
38902;DHT22;24661;53.566;9.910;2022-09-16T17:03:44;12.40;99.90
38902;DHT22;24661;53.566;9.910;2022-09-16T17:06:14;12.40;99.90
38902;DHT22;24661;53.566;9.910;2022-09-16T17:08:43;12.40;99.90
38902;DHT22;24661;53.566;9.910;2022-09-16T17:11:14;12.40;99.90
38902;DHT22;24661;53.566;9.910;2022-09-16T17:13:43;12.30;99.90
38902;DHT22;24661;53.566;9.910;2022-09-16T17:16:15;12.40;99.90
38902;DHT22;24661;53.566;9.910;2022-09-16T17:18:42;12.30;99.90
38902;DHT22;24661;53.566;9.910;2022-09-16T17:21:18;12.70;99.90
38902;DHT22;24661;53.566;9.910;2022-09-16T17:23:54;12.40;99.90
38902;DHT22;24661;53.566;9.910;2022-09-16T17:26:21;12.40;99.90
38902;DHT22;24661;53.566;9.910;2022-09-16T17:28:56;12.40;99.90
38902;DHT22;24661;53.566;9.910;2022-09-16T17:31:27;12.40;99.90
38902;DHT22;24661;53.566;9.910;2022-09-16T17:33:57;12.30;99.90
38902;DHT22;24661;53.566;9.910;2022-09-16T17:36:27;12.30;99.90
38902;DHT22;24661;53.566;9.910;2022-09-16T17:38:56;12.30;99.90
38902;DHT22;24661;53.566;9.910;2022-09-16T17:41:24;12.30;99.90
38902;DHT22;24661;53.566;9.910;2022-09-16T17:43:56;12.20;99.90
38902;DHT22;24661;53.566;9.910;2022-09-16T17:46:25;12.20;99.90
38902;DHT22;24661;53.566;9.910;2022-09-16T17:49:01;12.20;99.90
38902;DHT22;24661;53.566;9.910;2022-09-16T17:51:29;12.20;99.90
38902;DHT22;24661;53.566;9.910;2022-09-16T17:54:03;12.20;99.90
38902;DHT22;24661;53.566;9.910;2022-09-16T17:56:30;12.20;99.90
38902;DHT22;24661;53.566;9.910;2022-09-16T17:58:57;12.20;99.90
38902;DHT22;24661;53.566;9.910;2022-09-16T18:01:28;12.30;99.90
38902;DHT22;24661;53.566;9.910;2022-09-16T18:03:55;12.20;99.90
38902;DHT22;24661;53.566;9.910;2022-09-16T18:06:54;12.20;99.90
38902;DHT22;24661;53.566;9.910;2022-09-16T18:09:23;12.20;99.90
38902;DHT22;24661;53.566;9.910;2022-09-16T18:11:52;12.20;99.90
38902;DHT22;24661;53.566;9.910;2022-09-16T18:14:18;12.20;99.90
38902;DHT22;24661;53.566;9.910;2022-09-16T18:16:44;11.60;99.90
38902;DHT22;24661;53.566;9.910;2022-09-16T18:19:12;12.20;99.90
38902;DHT22;24661;53.566;9.910;2022-09-16T18:21:38;12.20;99.90
38902;DHT22;24661;53.566;9.910;2022-09-16T18:24:05;12.30;99.90
38902;DHT22;24661;53.566;9.910;2022-09-16T18:26:35;12.20;99.90
38902;DHT22;24661;53.566;9.910;2022-09-16T18:29:02;12.20;99.90
38902;DHT22;24661;53.566;9.910;2022-09-16T18:31:28;12.20;99.90
38902;DHT22;24661;53.566;9.910;2022-09-16T18:33:55;12.10;99.90
38902;DHT22;24661;53.566;9.910;2022-09-16T18:36:22;12.10;99.90